Time;durP1;ratioP1;P1;durP2;ratioP2;P2;SDS_P1;SDS_P2;PMS_P1;PMS_P2;Temp;Humidity;BMP_temperature;BMP_pressure;BME280_temperature;BME280_humidity;BME280_pressure;Samples;Min_cycle;Max_cycle;Signal;HPM_P1;HPM_P2
2021/10/13 00:00:21;;;;;;;24.77;11.90;;;;;;;6.06;100.00;94367.53;10157175;29;20028;-71
2021/10/13 00:05:22;;;;;;;22.70;11.50;;;;;;;6.17;100.00;94374.56;10164728;29;20055;-65
2021/10/13 00:10:22;;;;;;;27.13;12.27;;;;;;;6.12;100.00;94371.81;10165536;29;20295;-67
2021/10/13 00:15:23;;;;;;;32.83;14.02;;;;;;;6.02;100.00;94361.09;10180830;29;20310;-67
2021/10/13 00:20:23;;;;;;;27.13;13.70;;;;;;;6.06;100.00;94364.84;10180397;29;20059;-73
2021/10/13 00:25:24;;;;;;;26.33;13.13;;;;;;;6.10;100.00;94364.09;10165089;29;20027;-72
2021/10/13 00:30:24;;;;;;;21.63;12.27;;;;;;;6.20;100.00;94362.56;10164791;29;20148;-72
2021/10/13 00:35:25;;;;;;;21.90;11.98;;;;;;;6.29;100.00;94350.34;10165627;29;20158;-72
2021/10/13 00:40:26;;;;;;;28.20;13.82;;;;;;;6.36;100.00;94347.47;10180610;29;20032;-73
2021/10/13 00:45:27;;;;;;;28.80;13.45;;;;;;;6.33;100.00;94344.25;10165590;29;20099;-68
2021/10/13 00:50:28;;;;;;;26.02;13.02;;;;;;;6.22;100.00;94339.09;10163860;29;20570;-68
2021/10/13 00:55:30;;;;;;;32.63;14.55;;;;;;;6.26;100.00;94335.66;10180208;29;20036;-72
2021/10/13 01:00:31;;;;;;;25.05;13.20;;;;;;;6.37;100.00;94336.53;10163042;29;20422;-69
2021/10/13 01:05:53;;;;;;;27.25;13.63;;;;;;;6.40;100.00;94330.69;10163394;29;20060;-73
2021/10/13 01:10:59;;;;;;;26.25;12.95;;;;;;;6.37;100.00;94335.75;10163053;29;20036;-70
2021/10/13 01:16:13;;;;;;;23.98;12.38;;;;;;;6.46;100.00;94324.31;10162256;29;20028;-68
2021/10/13 01:21:31;;;;;;;27.92;13.73;;;;;;;6.58;100.00;94326.78;10161902;29;20032;-73
2021/10/13 01:26:56;;;;;;;28.70;14.40;;;;;;;6.62;100.00;94322.53;10162776;29;20028;-68
2021/10/13 01:32:06;;;;;;;26.60;12.52;;;;;;;6.62;100.00;94317.19;10162741;29;20577;-76
2021/10/13 01:37:29;;;;;;;28.77;13.90;;;;;;;6.60;100.00;94315.84;10163160;29;20028;-73
2021/10/13 01:42:33;;;;;;;29.98;15.07;;;;;;;6.65;100.00;94314.00;10163330;29;20044;-72
2021/10/13 01:47:35;;;;;;;29.20;15.32;;;;;;;6.71;100.00;94317.50;10161682;29;20574;-69
2021/10/13 01:52:36;;;;;;;28.10;13.52;;;;;;;6.61;100.00;94322.81;10161794;29;20629;-73
2021/10/13 01:57:39;;;;;;;35.00;14.40;;;;;;;6.65;100.00;94322.03;10161421;29;20159;-69
2021/10/13 02:02:41;;;;;;;32.08;14.60;;;;;;;6.58;100.00;94321.44;10161380;29;20095;-67
2021/10/13 02:07:45;;;;;;;29.38;14.15;;;;;;;6.59;100.00;94324.94;10145557;29;20032;-75
2021/10/13 02:12:46;;;;;;;32.28;14.63;;;;;;;6.66;100.00;94330.84;10177240;29;20506;-72
2021/10/13 02:17:50;;;;;;;30.85;14.95;;;;;;;6.66;100.00;94328.19;10176448;29;20082;-76
2021/10/13 02:22:55;;;;;;;29.02;14.70;;;;;;;6.62;100.00;94335.88;10160150;29;20079;-76
2021/10/13 02:28:30;;;;;;;30.98;14.68;;;;;;;6.61;100.00;94328.13;10159466;29;20030;-68
2021/10/13 02:33:30;;;;;;;36.47;14.93;;;;;;;6.54;100.00;94325.69;10172133;28;20044;-71
2021/10/13 02:38:31;;;;;;;30.52;14.23;;;;;;;6.44;100.00;94326.44;10161197;29;20036;-69
2021/10/13 02:43:32;;;;;;;30.58;14.00;;;;;;;6.45;100.00;94337.94;10159868;29;20050;-74
2021/10/13 02:48:35;;;;;;;31.77;15.15;;;;;;;6.56;100.00;94344.94;10159080;29;20020;-75
2021/10/13 02:53:51;;;;;;;28.42;14.18;;;;;;;6.57;100.00;94341.22;10159249;29;20028;-72
2021/10/13 02:59:01;;;;;;;30.02;16.08;;;;;;;6.57;100.00;94349.22;10160361;29;20032;-68
2021/10/13 03:04:04;;;;;;;30.77;15.32;;;;;;;6.52;100.00;94361.72;10159840;29;20062;-71
2021/10/13 03:09:07;;;;;;;26.85;13.40;;;;;;;6.50;100.00;94367.31;10158714;29;20028;-68
2021/10/13 03:14:07;;;;;;;33.20;14.70;;;;;;;6.40;100.00;94367.25;10160063;29;20035;-72
2021/10/13 03:19:09;;;;;;;30.73;14.57;;;;;;;6.34;100.00;94361.06;10159544;29;20043;-74
2021/10/13 03:24:10;;;;;;;27.75;15.07;;;;;;;6.15;100.00;94361.47;10158838;29;20036;-68
2021/10/13 03:29:11;;;;;;;30.38;14.85;;;;;;;6.05;100.00;94372.03;10159975;29;20024;-68
2021/10/13 03:34:14;;;;;;;27.80;14.30;;;;;;;5.94;100.00;94375.63;10173821;29;20438;-69
2021/10/13 03:39:15;;;;;;;26.50;13.85;;;;;;;5.87;100.00;94378.50;10173966;29;20193;-74
2021/10/13 03:44:15;;;;;;;29.13;14.45;;;;;;;5.80;100.00;94377.91;10157995;29;20085;-68
2021/10/13 03:49:15;;;;;;;28.90;15.00;;;;;;;5.78;100.00;94375.50;10160098;29;20036;-68
2021/10/13 03:54:16;;;;;;;29.30;14.60;;;;;;;5.69;100.00;94382.31;10158329;29;20107;-69
2021/10/13 03:59:16;;;;;;;35.00;17.35;;;;;;;5.59;100.00;94380.34;10156739;29;20292;-69
2021/10/13 04:04:17;;;;;;;31.05;16.65;;;;;;;5.67;100.00;94383.66;10155918;29;20446;-68
2021/10/13 04:09:17;;;;;;;34.40;17.93;;;;;;;5.62;100.00;94390.53;10154691;29;20025;-69
2021/10/13 04:14:17;;;;;;;33.73;17.27;;;;;;;5.64;100.00;94395.63;10169526;29;20363;-69
2021/10/13 04:19:18;;;;;;;31.73;15.10;;;;;;;5.60;100.00;94394.50;10154624;29;20832;-68
2021/10/13 04:24:18;;;;;;;38.20;17.37;;;;;;;5.51;100.00;94391.47;10155394;29;20332;-68
2021/10/13 04:29:19;;;;;;;34.00;16.40;;;;;;;5.58;100.00;94399.28;10158534;29;20312;-70
2021/10/13 04:34:19;;;;;;;32.08;15.20;;;;;;;5.57;100.00;94398.47;10157782;29;20036;-68
2021/10/13 04:39:20;;;;;;;31.38;16.73;;;;;;;5.45;100.00;94409.25;10155803;29;20577;-67
2021/10/13 04:44:20;;;;;;;39.10;18.40;;;;;;;5.48;100.00;94411.44;10171668;29;20115;-71
2021/10/13 04:49:20;;;;;;;33.72;18.80;;;;;;;5.20;100.00;94420.41;10158082;29;20272;-71
2021/10/13 04:54:21;;;;;;;35.07;17.03;;;;;;;5.16;100.00;94439.81;10162185;29;20028;-71
2021/10/13 04:59:22;;;;;;;37.90;17.58;;;;;;;5.14;100.00;94440.06;10175220;29;20283;-72
2021/10/13 05:04:22;;;;;;;33.85;16.23;;;;;;;5.05;100.00;94450.34;10162630;29;20111;-68
2021/10/13 05:09:23;;;;;;;34.37;17.43;;;;;;;5.11;100.00;94451.22;10188689;29;20055;-75
2021/10/13 05:14:23;;;;;;;32.47;15.07;;;;;;;5.28;100.00;94454.63;10160092;29;20288;-73
2021/10/13 05:19:23;;;;;;;30.75;15.38;;;;;;;5.45;100.00;94465.22;10159425;29;20096;-71
2021/10/13 05:24:24;;;;;;;31.07;14.33;;;;;;;5.72;100.00;94466.34;10142595;29;20123;-67
2021/10/13 05:29:24;;;;;;;32.83;13.73;;;;;;;5.76;100.00;94462.13;10176528;29;20279;-63
2021/10/13 05:34:25;;;;;;;29.33;15.00;;;;;;;6.11;100.00;94474.25;10156470;29;20300;-65
2021/10/13 05:39:26;;;;;;;28.45;14.25;;;;;;;6.25;100.00;94483.50;10143007;29;20383;-72
2021/10/13 05:44:26;;;;;;;25.33;13.40;;;;;;;6.28;100.00;94482.16;10162496;29;20478;-67
2021/10/13 05:49:27;;;;;;;23.65;12.63;;;;;;;6.38;100.00;94487.63;10161786;29;20036;-73
2021/10/13 05:54:27;;;;;;;21.55;11.93;;;;;;;6.70;100.00;94478.00;10160220;29;20044;-73
2021/10/13 05:59:28;;;;;;;23.52;12.57;;;;;;;6.77;100.00;94489.28;10160995;29;20027;-66
2021/10/13 06:04:28;;;;;;;20.40;11.82;;;;;;;6.88;100.00;94496.31;10143191;29;20446;-73
2021/10/13 06:09:29;;;;;;;23.50;11.87;;;;;;;7.18;100.00;94498.38;10161896;29;20036;-67
2021/10/13 06:14:29;;;;;;;23.45;13.00;;;;;;;7.32;100.00;94498.75;10160360;29;20288;-67
2021/10/13 06:19:29;;;;;;;23.60;12.25;;;;;;;7.93;100.00;94497.44;10159390;29;20040;-74
2021/10/13 06:24:30;;;;;;;22.07;10.47;;;;;;;7.99;100.00;94507.09;10160788;29;20118;-74
2021/10/13 06:29:32;;;;;;;18.65;10.57;;;;;;;8.56;100.00;94512.63;10159153;29;21087;-73
2021/10/13 06:34:32;;;;;;;19.55;9.75;;;;;;;8.72;100.00;94522.28;10178661;29;20126;-73
2021/10/13 06:39:33;;;;;;;19.40;10.15;;;;;;;8.60;100.00;94515.59;10197915;29;20031;-68
2021/10/13 06:44:33;;;;;;;19.05;9.75;;;;;;;8.47;100.00;94517.72;10197100;29;20395;-66
2021/10/13 06:49:34;;;;;;;20.90;10.15;;;;;;;8.56;100.00;94520.66;10186548;29;20032;-71
2021/10/13 06:54:34;;;;;;;21.77;9.70;;;;;;;8.95;100.00;94528.19;10158264;29;20051;-71
2021/10/13 06:59:34;;;;;;;18.33;9.60;;;;;;;9.05;100.00;94524.72;10157688;29;20032;-71
2021/10/13 07:04:35;;;;;;;17.40;9.97;;;;;;;8.89;100.00;94518.56;10155842;29;20343;-66
2021/10/13 07:09:36;;;;;;;17.73;10.38;;;;;;;8.86;100.00;94516.41;10159010;29;20291;-67
2021/10/13 07:14:36;;;;;;;20.48;10.13;;;;;;;9.35;100.00;94515.84;10140316;29;20036;-67
2021/10/13 07:19:37;;;;;;;15.85;9.32;;;;;;;9.56;100.00;94519.28;10156744;29;20040;-71
2021/10/13 07:24:37;;;;;;;19.70;10.00;;;;;;;9.53;100.00;94519.84;10156537;29;20033;-67
2021/10/13 07:29:42;;;;;;;17.93;10.10;;;;;;;9.95;100.00;94511.66;10172845;29;20028;-64
2021/10/13 07:34:43;;;;;;;14.40;8.43;;;;;;;9.67;100.00;94513.91;10171731;29;20363;-66
2021/10/13 07:39:43;;;;;;;14.23;8.07;;;;;;;9.98;100.00;94521.88;10155744;29;20032;-66
2021/10/13 07:44:44;;;;;;;16.58;9.02;;;;;;;10.24;100.00;94522.53;10156117;29;20425;-69
2021/10/13 07:49:45;;;;;;;16.05;8.60;;;;;;;10.68;100.00;94512.94;10155247;29;20067;-68
2021/10/13 07:54:45;;;;;;;15.50;8.97;;;;;;;10.37;100.00;94515.81;10171141;29;20419;-72
2021/10/13 07:59:46;;;;;;;11.98;7.25;;;;;;;10.48;100.00;94522.75;10155717;29;20280;-66
2021/10/13 08:04:46;;;;;;;17.75;7.97;;;;;;;11.59;100.00;94504.38;10170714;29;20442;-67
2021/10/13 08:09:46;;;;;;;15.80;8.35;;;;;;;11.82;100.00;94518.13;10155154;29;20124;-67
2021/10/13 08:14:47;;;;;;;19.97;7.03;;;;;;;13.41;99.21;94523.28;10157493;29;20036;-70
2021/10/13 08:19:47;;;;;;;15.13;7.97;;;;;;;15.10;87.27;94515.59;10170829;29;20284;-72
2021/10/13 08:24:49;;;;;;;13.90;6.85;;;;;;;15.57;69.17;94512.56;10157360;29;20280;-68
2021/10/13 08:29:49;;;;;;;13.93;7.25;;;;;;;15.30;69.41;94506.19;10162887;29;20036;-67
2021/10/13 08:34:50;;;;;;;11.43;6.82;;;;;;;14.71;66.47;94512.44;10309168;23;20071;-67
2021/10/13 08:39:50;;;;;;;15.82;7.40;;;;;;;15.91;67.70;94503.84;10255188;28;20038;-68
2021/10/13 08:44:55;;;;;;;17.00;7.43;;;;;;;15.96;71.82;94494.75;10282182;28;20054;-68
2021/10/13 08:49:56;;;;;;;13.88;7.25;;;;;;;15.24;73.43;94502.81;10241587;28;20275;-67
2021/10/13 08:54:56;;;;;;;20.20;8.63;;;;;;;14.90;72.88;94514.16;10242262;28;20042;-67
2021/10/13 08:59:57;;;;;;;12.87;7.40;;;;;;;15.24;77.70;94516.34;10241767;29;20198;-63
2021/10/13 09:05:02;;;;;;;13.98;7.18;;;;;;;14.82;68.27;94526.53;10240431;28;20031;-73
2021/10/13 09:10:04;;;;;;;14.30;7.50;;;;;;;13.15;89.14;94540.66;10241639;28;20540;-67
2021/10/13 09:15:13;;;;;;;16.30;7.93;;;;;;;12.68;91.32;94539.72;10240764;29;20174;-73
2021/10/13 09:20:24;;;;;;;20.65;9.73;;;;;;;13.29;92.20;94516.44;10214573;29;20414;-69
2021/10/13 09:25:25;;;;;;;17.60;8.15;;;;;;;12.35;91.66;94525.34;10201012;28;20055;-73
2021/10/13 09:30:40;;;;;;;18.92;8.95;;;;;;;11.59;100.00;94536.69;10199845;29;20035;-69
2021/10/13 09:35:52;;;;;;;16.20;9.00;;;;;;;10.87;100.00;94537.25;10200217;29;20059;-68
2021/10/13 09:41:00;;;;;;;13.52;8.10;;;;;;;12.04;100.00;94540.03;10199376;29;20027;-73
2021/10/13 09:46:13;;;;;;;14.95;8.35;;;;;;;13.23;94.64;94538.38;10199744;29;20577;-68
2021/10/13 09:51:14;;;;;;;15.32;8.13;;;;;;;12.54;96.78;94542.34;10198483;28;20070;-71
2021/10/13 09:56:35;;;;;;;16.10;8.27;;;;;;;11.73;100.00;94539.50;10195989;29;20051;-70
2021/10/13 10:01:37;;;;;;;17.30;7.88;;;;;;;11.41;100.00;94555.16;10204100;29;20090;-68
2021/10/13 10:06:39;;;;;;;16.23;9.50;;;;;;;11.25;100.00;94561.75;10220862;28;20042;-71
2021/10/13 10:11:40;;;;;;;12.68;7.28;;;;;;;10.92;100.00;94548.00;10198542;29;20066;-67
2021/10/13 10:16:41;;;;;;;11.15;7.43;;;;;;;10.67;100.00;94563.19;10198096;29;20087;-67
2021/10/13 10:21:54;;;;;;;16.27;8.23;;;;;;;10.36;100.00;94566.03;10199014;29;20028;-72
2021/10/13 10:27:23;;;;;;;17.67;8.18;;;;;;;10.38;100.00;94563.91;10182375;29;20478;-71
2021/10/13 10:32:23;;;;;;;16.35;8.15;;;;;;;10.41;100.00;94566.03;10196723;29;20031;-72
2021/10/13 10:37:40;;;;;;;16.00;8.40;;;;;;;10.59;100.00;94567.28;10198096;29;20020;-73
2021/10/13 10:42:48;;;;;;;14.18;7.35;;;;;;;11.77;100.00;94551.31;10229809;29;20278;-68
2021/10/13 10:48:04;;;;;;;10.70;6.43;;;;;;;12.08;98.05;94554.53;10251467;28;20521;-68
2021/10/13 10:53:11;;;;;;;12.80;6.22;;;;;;;11.28;100.00;94556.59;10233874;28;20532;-73
2021/10/13 10:58:23;;;;;;;13.48;7.15;;;;;;;10.67;100.00;94557.03;10236855;28;20501;-73
2021/10/13 11:03:27;;;;;;;14.15;7.15;;;;;;;10.43;100.00;94563.84;10219344;28;20027;-72
2021/10/13 11:08:28;;;;;;;16.70;8.25;;;;;;;10.16;100.00;94563.41;10234152;28;20023;-74
2021/10/13 11:13:28;;;;;;;15.70;7.70;;;;;;;10.11;100.00;94561.53;10246387;28;20038;-69
2021/10/13 11:18:30;;;;;;;17.63;7.90;;;;;;;10.32;100.00;94564.94;10244590;28;20858;-67
2021/10/13 11:23:30;;;;;;;12.02;7.30;;;;;;;10.48;100.00;94563.03;10234958;29;20275;-73
2021/10/13 11:28:36;;;;;;;13.97;7.27;;;;;;;10.80;100.00;94552.91;10236266;29;20501;-64
2021/10/13 11:33:38;;;;;;;13.90;6.07;;;;;;;10.97;100.00;94560.59;10181983;29;20303;-74
2021/10/13 11:38:40;;;;;;;16.63;7.75;;;;;;;10.95;100.00;94568.94;10205158;29;20146;-71
2021/10/13 11:43:42;;;;;;;18.98;6.43;;;;;;;10.74;100.00;94566.41;10250713;28;20038;-72
2021/10/13 11:48:42;;;;;;;17.00;6.85;;;;;;;10.86;100.00;94570.63;10234685;28;20410;-67
2021/10/13 11:53:49;;;;;;;14.05;7.13;;;;;;;10.77;100.00;94583.84;10233745;29;20235;-74
2021/10/13 11:58:50;;;;;;;14.30;7.75;;;;;;;10.59;100.00;94587.94;10234363;29;20034;-73
2021/10/13 12:03:50;;;;;;;18.48;8.20;;;;;;;10.53;100.00;94591.75;10233574;29;20027;-72
2021/10/13 12:08:51;;;;;;;13.27;7.90;;;;;;;10.66;100.00;94579.59;10178977;29;20023;-74
2021/10/13 12:13:52;;;;;;;16.13;7.55;;;;;;;10.38;100.00;94588.06;10194639;29;20442;-67
2021/10/13 12:18:53;;;;;;;12.57;7.03;;;;;;;10.13;100.00;94597.00;10178545;29;20035;-68
2021/10/13 12:23:58;;;;;;;13.68;7.78;;;;;;;10.18;100.00;94585.44;10194347;29;20046;-72
2021/10/13 12:29:06;;;;;;;19.27;7.47;;;;;;;10.14;100.00;94587.06;10205121;29;20559;-67
2021/10/13 12:34:12;;;;;;;15.07;8.07;;;;;;;9.86;100.00;94581.22;10233786;29;20062;-73
2021/10/13 12:39:15;;;;;;;19.33;8.60;;;;;;;9.59;100.00;94585.03;10234449;28;20072;-68
2021/10/13 12:44:22;;;;;;;15.23;7.82;;;;;;;9.68;100.00;94591.44;10217821;29;20039;-70
2021/10/13 12:49:24;;;;;;;112.82;14.15;;;;;;;9.67;100.00;94589.03;10232640;28;20482;-65
2021/10/13 12:54:27;;;;;;;16.48;7.97;;;;;;;9.89;100.00;94594.09;10217337;29;20117;-72
2021/10/13 12:59:28;;;;;;;14.52;7.38;;;;;;;10.03;100.00;94599.69;10232365;28;20577;-67
2021/10/13 13:04:29;;;;;;;13.27;7.75;;;;;;;10.25;100.00;94594.78;10229297;29;20549;-67
2021/10/13 13:09:29;;;;;;;14.27;7.90;;;;;;;10.18;100.00;94596.97;10194559;29;20030;-68
2021/10/13 13:14:30;;;;;;;22.10;8.50;;;;;;;10.06;100.00;94591.91;10200626;29;20291;-68
2021/10/13 13:19:30;;;;;;;20.35;7.75;;;;;;;10.02;100.00;94598.09;10200814;29;20354;-67
2021/10/13 13:24:31;;;;;;;17.38;8.23;;;;;;;10.26;100.00;94590.25;10184557;29;20024;-74
2021/10/13 13:29:31;;;;;;;14.03;6.97;;;;;;;10.17;100.00;94606.13;10199593;29;20517;-67
2021/10/13 13:34:31;;;;;;;15.60;8.13;;;;;;;10.48;100.00;94606.03;10235155;29;20326;-71
2021/10/13 13:39:32;;;;;;;12.50;6.40;;;;;;;10.75;100.00;94602.13;10236584;28;20371;-70
2021/10/13 13:44:32;;;;;;;13.50;6.35;;;;;;;10.95;100.00;94603.88;10214934;28;20035;-67
2021/10/13 13:49:33;;;;;;;18.08;7.47;;;;;;;10.77;100.00;94605.34;10224728;29;20023;-65
2021/10/13 13:54:33;;;;;;;16.80;7.07;;;;;;;10.60;100.00;94606.50;10217778;29;20038;-66
2021/10/13 13:59:34;;;;;;;15.50;6.67;;;;;;;10.46;100.00;94610.88;10237690;29;20027;-66
2021/10/13 14:04:34;;;;;;;14.95;7.40;;;;;;;10.50;100.00;94601.16;10234446;29;20278;-66
2021/10/13 14:09:34;;;;;;;15.20;8.00;;;;;;;10.70;100.00;94604.84;10235724;28;20077;-65
2021/10/13 14:14:35;;;;;;;13.15;6.93;;;;;;;10.80;100.00;94617.41;10218973;29;20275;-65
2021/10/13 14:19:35;;;;;;;14.13;7.18;;;;;;;10.86;100.00;94617.13;10182373;29;20027;-71
2021/10/13 14:24:37;;;;;;;23.50;7.83;;;;;;;10.93;100.00;94616.81;10237489;28;20027;-68
2021/10/13 14:29:37;;;;;;;18.85;8.02;;;;;;;10.79;100.00;94619.31;10235873;28;20279;-64
2021/10/13 14:34:38;;;;;;;15.50;7.30;;;;;;;10.76;100.00;94625.25;10220521;29;20528;-67
2021/10/13 14:39:38;;;;;;;11.68;7.53;;;;;;;10.70;100.00;94632.53;10236480;28;20027;-66
2021/10/13 14:44:39;;;;;;;18.40;6.97;;;;;;;10.65;100.00;94632.56;10252942;28;20181;-73
2021/10/13 14:49:40;;;;;;;15.90;8.15;;;;;;;10.61;100.00;94636.88;10248797;28;20029;-68
2021/10/13 14:54:41;;;;;;;12.98;7.35;;;;;;;10.50;100.00;94646.84;10236303;28;20404;-67
2021/10/13 14:59:42;;;;;;;17.80;8.10;;;;;;;10.37;100.00;94653.63;10226635;29;20466;-71
2021/10/13 15:04:44;;;;;;;17.35;9.05;;;;;;;10.39;100.00;94659.50;10196316;29;20106;-71
2021/10/13 15:09:46;;;;;;;19.40;9.00;;;;;;;10.26;100.00;94658.19;10208739;29;20094;-71
2021/10/13 15:14:47;;;;;;;20.33;9.18;;;;;;;10.14;100.00;94651.50;10228880;28;20054;-68
2021/10/13 15:19:47;;;;;;;13.43;7.22;;;;;;;10.02;100.00;94662.53;10234935;29;20464;-68
2021/10/13 15:24:50;;;;;;;20.00;8.23;;;;;;;9.93;100.00;94678.38;10236297;28;20126;-73
2021/10/13 15:29:51;;;;;;;16.73;8.27;;;;;;;9.88;100.00;94681.09;10234598;28;20267;-68
2021/10/13 15:34:52;;;;;;;14.95;7.80;;;;;;;9.82;100.00;94682.16;10234285;28;20058;-73
2021/10/13 15:39:53;;;;;;;14.65;7.88;;;;;;;9.77;100.00;94688.34;10235415;28;20433;-73
2021/10/13 15:44:54;;;;;;;14.50;8.25;;;;;;;9.75;100.00;94693.16;10235358;28;20035;-68
2021/10/13 15:49:55;;;;;;;17.33;8.43;;;;;;;9.78;100.00;94703.34;10209763;29;20255;-66
2021/10/13 15:54:56;;;;;;;21.33;8.45;;;;;;;9.73;100.00;94714.88;10205825;29;20282;-66
2021/10/13 15:59:56;;;;;;;16.65;7.80;;;;;;;9.65;100.00;94715.41;10250891;28;20040;-68
2021/10/13 16:04:56;;;;;;;25.38;8.75;;;;;;;9.58;100.00;94715.69;10234822;29;20498;-67
2021/10/13 16:10:01;;;;;;;17.63;8.70;;;;;;;9.57;100.00;94724.00;10233605;29;20093;-71
2021/10/13 16:15:02;;;;;;;21.30;10.25;;;;;;;9.58;100.00;94723.72;10235188;28;20677;-72
2021/10/13 16:20:05;;;;;;;28.48;10.55;;;;;;;9.55;100.00;94736.88;10234397;29;20031;-69
2021/10/13 16:25:07;;;;;;;24.52;10.43;;;;;;;9.51;100.00;94741.16;10218182;29;20423;-72
2021/10/13 16:30:08;;;;;;;20.95;11.15;;;;;;;9.49;100.00;94746.81;10215593;28;20460;-67
2021/10/13 16:35:09;;;;;;;26.98;12.65;;;;;;;9.52;100.00;94756.22;10213335;29;20056;-67
2021/10/13 16:40:10;;;;;;;27.77;12.60;;;;;;;9.48;100.00;94763.16;10224634;28;20477;-68
2021/10/13 16:45:10;;;;;;;27.45;13.55;;;;;;;9.46;100.00;94760.75;10212478;28;20098;-67
2021/10/13 16:50:11;;;;;;;26.10;12.35;;;;;;;9.34;100.00;94758.31;10204366;29;20089;-66
2021/10/13 16:55:12;;;;;;;24.50;12.27;;;;;;;9.35;100.00;94769.81;10204234;29;20031;-66
2021/10/13 17:00:13;;;;;;;25.95;13.20;;;;;;;9.30;100.00;94767.94;10211142;29;20058;-72
2021/10/13 17:05:14;;;;;;;22.35;12.57;;;;;;;9.28;100.00;94780.00;10234133;28;20446;-72
2021/10/13 17:10:14;;;;;;;24.57;12.80;;;;;;;9.21;100.00;94780.28;10238117;28;20109;-68
2021/10/13 17:15:15;;;;;;;28.40;13.10;;;;;;;9.27;100.00;94781.09;10241180;28;20286;-71
2021/10/13 17:20:17;;;;;;;25.40;12.02;;;;;;;9.27;100.00;94792.63;10240082;28;20031;-68
2021/10/13 17:25:17;;;;;;;24.38;11.93;;;;;;;9.24;100.00;94799.31;10240553;28;20544;-72
2021/10/13 17:30:18;;;;;;;26.37;12.87;;;;;;;9.21;100.00;94801.72;10237775;28;20036;-68
2021/10/13 17:35:18;;;;;;;25.52;13.05;;;;;;;9.20;100.00;94805.47;10201790;29;20308;-67
2021/10/13 17:40:19;;;;;;;25.63;12.88;;;;;;;9.07;100.00;94812.13;10200208;29;20028;-69
2021/10/13 17:45:20;;;;;;;27.30;11.80;;;;;;;9.01;100.00;94819.31;10200544;29;20028;-67
2021/10/13 17:50:20;;;;;;;25.63;12.57;;;;;;;9.05;100.00;94817.72;10199721;29;20542;-67
2021/10/13 17:55:20;;;;;;;30.38;13.80;;;;;;;9.05;100.00;94815.03;10196889;29;20058;-73
2021/10/13 18:00:21;;;;;;;29.65;14.35;;;;;;;8.95;100.00;94823.03;10218029;29;20038;-67
2021/10/13 18:05:21;;;;;;;33.53;15.97;;;;;;;8.93;100.00;94817.16;10239385;29;20031;-73
2021/10/13 18:10:23;;;;;;;28.30;14.90;;;;;;;8.84;100.00;94824.06;10240745;28;20357;-69
2021/10/13 18:15:24;;;;;;;36.63;15.13;;;;;;;8.84;100.00;94830.22;10221856;28;20070;-71
2021/10/13 18:20:25;;;;;;;31.38;14.77;;;;;;;8.68;100.00;94837.38;10237419;29;20031;-72
2021/10/13 18:25:25;;;;;;;29.00;14.05;;;;;;;8.63;100.00;94840.00;10237145;29;20031;-71
2021/10/13 18:30:26;;;;;;;30.27;14.35;;;;;;;8.71;100.00;94852.13;10238957;28;20417;-72
2021/10/13 18:35:26;;;;;;;34.95;14.90;;;;;;;8.68;100.00;94848.09;10237017;28;20050;-67
2021/10/13 18:40:27;;;;;;;23.77;14.90;;;;;;;8.80;100.00;94855.91;10192623;29;20098;-68
2021/10/13 18:45:27;;;;;;;25.63;13.07;;;;;;;8.78;100.00;94862.63;10197989;29;20114;-71
2021/10/13 18:50:28;;;;;;;28.23;12.95;;;;;;;8.81;100.00;94867.47;10215917;29;20647;-71
2021/10/13 18:55:28;;;;;;;26.88;13.95;;;;;;;8.75;100.00;94865.78;10222446;28;20039;-66
2021/10/13 19:00:29;;;;;;;26.88;13.77;;;;;;;8.71;100.00;94873.56;10226495;29;20602;-68
2021/10/13 19:05:29;;;;;;;30.00;14.25;;;;;;;8.69;100.00;94876.50;10225790;28;20388;-74
2021/10/13 19:10:30;;;;;;;25.98;13.52;;;;;;;8.62;100.00;94885.81;10215621;28;20043;-68
2021/10/13 19:15:30;;;;;;;29.88;13.65;;;;;;;8.51;100.00;94890.28;10217833;29;20024;-67
2021/10/13 19:20:31;;;;;;;23.90;12.45;;;;;;;8.55;100.00;94875.31;10215581;29;20019;-68
2021/10/13 19:25:31;;;;;;;26.73;13.15;;;;;;;8.47;100.00;94889.16;10216777;29;20019;-70
2021/10/13 19:30:33;;;;;;;30.20;13.77;;;;;;;8.44;100.00;94893.16;10218786;28;20021;-71
2021/10/13 19:35:33;;;;;;;29.77;15.52;;;;;;;8.31;100.00;94891.69;10214869;29;20043;-68
2021/10/13 19:40:33;;;;;;;32.65;15.38;;;;;;;8.17;100.00;94907.38;10214746;29;20051;-67
2021/10/13 19:45:34;;;;;;;27.20;14.10;;;;;;;8.31;100.00;94907.75;10204913;29;20031;-67
2021/10/13 19:50:35;;;;;;;36.78;14.15;;;;;;;8.31;100.00;94915.78;10212761;28;20031;-73
2021/10/13 19:55:35;;;;;;;25.75;12.55;;;;;;;8.35;100.00;94921.47;10206703;29;20039;-67
2021/10/13 20:00:36;;;;;;;21.77;12.05;;;;;;;8.12;100.00;94925.25;10210223;28;20054;-67
2021/10/13 20:05:36;;;;;;;25.33;11.88;;;;;;;7.95;100.00;94923.47;10235706;28;20063;-66
2021/10/13 20:10:37;;;;;;;24.90;12.52;;;;;;;7.83;100.00;94931.66;10235966;28;20027;-67
2021/10/13 20:15:37;;;;;;;22.13;12.65;;;;;;;7.86;100.00;94938.38;10237631;28;20067;-66
2021/10/13 20:20:40;;;;;;;31.75;14.10;;;;;;;7.61;100.00;94938.88;10240482;28;20031;-66
2021/10/13 20:25:40;;;;;;;23.75;12.40;;;;;;;7.48;100.00;94945.41;10244217;29;20412;-72
2021/10/13 20:30:41;;;;;;;21.37;11.70;;;;;;;7.33;100.00;94946.03;10245216;28;20031;-73
2021/10/13 20:35:41;;;;;;;24.63;12.13;;;;;;;7.25;100.00;94949.13;10245161;28;20692;-66
2021/10/13 20:40:42;;;;;;;23.05;12.38;;;;;;;7.21;100.00;94950.66;10243209;29;20039;-68
2021/10/13 20:45:42;;;;;;;26.33;12.10;;;;;;;7.23;100.00;94957.38;10242846;29;20067;-65
2021/10/13 20:50:43;;;;;;;26.52;12.75;;;;;;;7.16;100.00;94951.41;10240988;28;20042;-63
2021/10/13 20:55:43;;;;;;;27.60;13.55;;;;;;;7.10;100.00;94958.56;10190088;29;20523;-68
2021/10/13 21:00:44;;;;;;;19.70;12.18;;;;;;;7.03;100.00;94951.75;10226173;29;20046;-67
2021/10/13 21:05:44;;;;;;;22.42;12.13;;;;;;;7.36;100.00;94958.91;10242662;28;20066;-71
2021/10/13 21:10:45;;;;;;;25.03;12.20;;;;;;;7.43;100.00;94946.16;10219415;29;20027;-71
2021/10/13 21:15:45;;;;;;;21.20;10.82;;;;;;;7.48;100.00;94946.22;10202379;29;20370;-67
2021/10/13 21:20:45;;;;;;;25.77;12.75;;;;;;;7.23;100.00;94951.22;10186929;29;20059;-67
2021/10/13 21:25:47;;;;;;;20.50;12.18;;;;;;;7.03;100.00;94951.75;10203545;29;20083;-66
2021/10/13 21:30:47;;;;;;;24.30;12.38;;;;;;;6.98;100.00;94949.81;10215276;28;20046;-71
2021/10/13 21:35:47;;;;;;;29.02;12.15;;;;;;;6.99;100.00;94952.25;10241124;29;20406;-67
2021/10/13 21:40:48;;;;;;;27.45;14.00;;;;;;;6.96;100.00;94947.41;10242546;28;20042;-71
2021/10/13 21:45:49;;;;;;;21.70;11.50;;;;;;;7.03;100.00;94952.53;10241061;28;20023;-71
2021/10/13 21:50:50;;;;;;;24.73;11.90;;;;;;;7.00;100.00;94955.72;10242401;28;20027;-66
2021/10/13 21:55:50;;;;;;;27.70;12.30;;;;;;;6.97;100.00;94948.19;10241118;28;20066;-67
2021/10/13 22:00:51;;;;;;;22.27;10.85;;;;;;;7.13;100.00;94946.53;10241227;29;20039;-68
2021/10/13 22:05:53;;;;;;;24.00;12.63;;;;;;;7.18;100.00;94954.63;10240169;29;20031;-68
2021/10/13 22:10:53;;;;;;;25.70;12.82;;;;;;;6.94;100.00;94951.38;10225018;29;20031;-72
2021/10/13 22:15:54;;;;;;;22.85;11.63;;;;;;;6.90;100.00;94958.25;10239898;29;20042;-72
2021/10/13 22:20:54;;;;;;;25.83;12.05;;;;;;;6.88;100.00;94960.34;10239271;29;20039;-68
2021/10/13 22:25:55;;;;;;;26.67;12.55;;;;;;;6.79;100.00;94970.63;10224195;29;20039;-72
2021/10/13 22:30:55;;;;;;;26.52;12.27;;;;;;;6.72;100.00;94956.63;10239601;29;20480;-68
2021/10/13 22:35:56;;;;;;;23.30;12.95;;;;;;;6.96;100.00;94957.25;10238432;29;20047;-66
2021/10/13 22:40:56;;;;;;;23.73;12.80;;;;;;;7.01;100.00;94960.81;10238982;28;20474;-71
2021/10/13 22:45:56;;;;;;;23.20;11.55;;;;;;;6.79;100.00;94947.38;10238332;29;20314;-72
2021/10/13 22:50:59;;;;;;;21.63;10.90;;;;;;;6.90;100.00;94963.59;10238311;28;20027;-69